createdAt,value
2022-11-28T00:00:48.218Z,4.20
2022-11-28T00:01:48.245Z,5.00
2022-11-28T00:02:48.273Z,4.50
2022-11-28T00:03:48.196Z,4.40
2022-11-28T00:04:48.982Z,4.40
2022-11-28T00:05:48.141Z,4.30
2022-11-28T00:06:48.121Z,5.20
2022-11-28T00:07:48.203Z,4.30
2022-11-28T00:08:48.137Z,4.50
2022-11-28T00:09:48.092Z,4.20
2022-11-28T00:10:48.104Z,4.80
2022-11-28T00:11:48.071Z,4.90
2022-11-28T00:12:48.057Z,4.20
2022-11-28T00:13:48.064Z,5.00
2022-11-28T00:14:48.066Z,4.70
2022-11-28T00:15:48.086Z,5.10
2022-11-28T00:16:48.042Z,5.50
2022-11-28T00:17:48.040Z,4.80
2022-11-28T00:18:48.025Z,4.60
2022-11-28T00:19:47.993Z,4.30
2022-11-28T00:20:47.977Z,4.60
2022-11-28T00:21:48.032Z,4.20
2022-11-28T00:22:47.948Z,5.00
2022-11-28T00:23:47.995Z,4.90
2022-11-28T00:24:47.965Z,5.50
2022-11-28T00:25:47.930Z,4.70
2022-11-28T00:26:47.952Z,4.70
2022-11-28T00:27:47.905Z,5.00
2022-11-28T00:28:47.917Z,4.50
2022-11-28T00:29:47.883Z,4.50
2022-11-28T00:30:47.931Z,4.40
2022-11-28T00:31:47.898Z,4.70
2022-11-28T00:32:47.881Z,5.10
2022-11-28T00:33:47.874Z,4.70
2022-11-28T00:34:47.848Z,4.20
2022-11-28T00:35:47.823Z,4.90
2022-11-28T00:36:47.839Z,4.70
2022-11-28T00:37:47.820Z,4.50
2022-11-28T00:38:47.808Z,4.90
2022-11-28T00:39:47.816Z,4.90
2022-11-28T00:40:47.773Z,4.80
2022-11-28T00:41:47.758Z,4.80
2022-11-28T00:42:47.753Z,4.60
2022-11-28T00:43:47.747Z,5.00
2022-11-28T00:44:47.783Z,4.50
2022-11-28T00:45:47.924Z,5.80
2022-11-28T00:46:47.704Z,4.50
2022-11-28T00:47:47.714Z,5.20
2022-11-28T00:48:47.689Z,4.60
2022-11-28T00:49:47.679Z,5.30
2022-11-28T00:50:47.671Z,4.90
2022-11-28T00:51:47.664Z,4.90
2022-11-28T00:52:47.643Z,5.30
2022-11-28T00:53:47.664Z,4.50
2022-11-28T00:54:47.639Z,5.30
2022-11-28T00:55:47.638Z,4.50
2022-11-28T00:56:47.625Z,5.10
2022-11-28T00:57:47.624Z,5.10
2022-11-28T00:58:47.588Z,4.70
2022-11-28T00:59:47.571Z,4.90
2022-11-28T01:00:47.587Z,5.10
2022-11-28T01:01:47.585Z,5.50
2022-11-28T01:02:47.592Z,5.00
2022-11-28T01:03:47.576Z,4.90
2022-11-28T01:04:47.524Z,5.10
2022-11-28T01:05:47.508Z,4.60
2022-11-28T01:06:47.511Z,4.50
2022-11-28T01:07:47.557Z,7.20
2022-11-28T01:08:47.498Z,5.00
2022-11-28T01:09:47.470Z,4.50
2022-11-28T01:10:47.464Z,4.40
2022-11-28T01:11:47.442Z,4.90
2022-11-28T01:12:47.434Z,4.90
2022-11-28T01:13:47.450Z,4.80
2022-11-28T01:14:47.416Z,5.40
2022-11-28T01:15:47.485Z,5.80
2022-11-28T01:16:47.494Z,4.90
2022-11-28T01:17:47.384Z,4.60
2022-11-28T01:18:47.392Z,4.20
2022-11-28T01:19:47.365Z,4.60
2022-11-28T01:20:47.345Z,4.90
2022-11-28T01:21:47.370Z,5.20
2022-11-28T01:22:47.347Z,4.70
2022-11-28T01:23:47.335Z,4.50
2022-11-28T01:24:47.318Z,4.90
2022-11-28T01:25:47.319Z,4.20
2022-11-28T01:26:47.308Z,5.10
2022-11-28T01:27:47.290Z,5.10
2022-11-28T01:28:47.283Z,5.00
2022-11-28T01:29:47.262Z,5.00
2022-11-28T01:30:47.280Z,4.30
2022-11-28T01:31:47.321Z,3.90
2022-11-28T01:32:47.223Z,4.80
2022-11-28T01:33:47.247Z,4.70
2022-11-28T01:34:47.219Z,4.20
2022-11-28T01:35:47.208Z,4.80
2022-11-28T01:36:47.185Z,4.20
2022-11-28T01:37:47.229Z,4.20
2022-11-28T01:38:47.181Z,4.20
2022-11-28T01:39:47.165Z,4.90
2022-11-28T01:40:47.140Z,4.30
2022-11-28T01:41:47.157Z,4.20
2022-11-28T01:42:47.151Z,3.60
2022-11-28T01:43:47.153Z,4.00
2022-11-28T01:44:47.175Z,4.20
2022-11-28T01:45:47.088Z,3.80
2022-11-28T01:46:47.184Z,4.30
2022-11-28T01:47:47.079Z,4.90
2022-11-28T01:48:47.102Z,3.80
2022-11-28T01:49:47.057Z,4.00
2022-11-28T01:50:47.099Z,4.20
2022-11-28T01:51:47.029Z,4.10
2022-11-28T01:52:47.030Z,4.00
2022-11-28T01:53:47.067Z,4.10
2022-11-28T01:54:47.023Z,4.10
2022-11-28T01:55:46.994Z,4.00
2022-11-28T01:56:46.990Z,4.40
2022-11-28T01:57:46.989Z,4.20
2022-11-28T01:58:46.976Z,4.70
2022-11-28T01:59:46.955Z,4.30
2022-11-28T02:00:47.013Z,3.70
2022-11-28T02:01:47.002Z,4.50
2022-11-28T02:02:46.952Z,3.80
2022-11-28T02:03:46.935Z,4.30
2022-11-28T02:04:46.915Z,4.50
2022-11-28T02:05:46.893Z,4.00
2022-11-28T02:06:52.908Z,3.70
2022-11-28T02:07:46.927Z,3.80
2022-11-28T02:08:46.878Z,3.80
2022-11-28T02:09:48.393Z,4.00
2022-11-28T02:10:46.853Z,3.80
2022-11-28T02:11:46.856Z,4.00
2022-11-28T02:12:46.837Z,4.20
2022-11-28T02:13:46.828Z,3.80
2022-11-28T02:14:46.798Z,4.00
2022-11-28T02:15:46.823Z,4.10
2022-11-28T02:16:46.842Z,4.40
2022-11-28T02:17:46.768Z,4.20
2022-11-28T02:18:50.291Z,4.10
2022-11-28T02:19:46.740Z,4.10
2022-11-28T02:20:46.747Z,4.20
2022-11-28T02:21:46.739Z,4.10
2022-11-28T02:22:46.735Z,4.00
2022-11-28T02:23:46.742Z,4.20
2022-11-28T02:24:46.698Z,5.10
2022-11-28T02:25:46.693Z,4.00
2022-11-28T02:26:46.698Z,4.20
2022-11-28T02:27:46.676Z,4.30
2022-11-28T02:28:46.706Z,4.40
2022-11-28T02:29:46.639Z,4.40
2022-11-28T02:30:46.651Z,3.70
2022-11-28T02:31:46.662Z,4.60
2022-11-28T02:32:46.616Z,4.50
2022-11-28T02:33:46.657Z,4.10
2022-11-28T02:34:47.293Z,3.80
2022-11-28T02:35:46.578Z,4.20
2022-11-28T02:36:46.581Z,4.50
2022-11-28T02:37:46.580Z,3.90
2022-11-28T02:38:46.591Z,4.40
2022-11-28T02:39:46.534Z,4.70
2022-11-28T02:40:46.532Z,4.30
2022-11-28T02:41:46.532Z,4.50
2022-11-28T02:42:46.522Z,4.60
2022-11-28T02:43:46.511Z,4.80
2022-11-28T02:44:46.488Z,4.20
2022-11-28T02:45:46.471Z,4.20
2022-11-28T02:46:46.545Z,4.30
2022-11-28T02:47:46.512Z,4.70
2022-11-28T02:48:46.467Z,5.30
2022-11-28T02:49:46.442Z,5.30
2022-11-28T02:50:46.447Z,4.00
2022-11-28T02:51:46.434Z,3.80
2022-11-28T02:52:46.427Z,4.50
2022-11-28T02:53:46.404Z,4.70
2022-11-28T02:54:46.407Z,3.70
2022-11-28T02:55:46.372Z,4.50
2022-11-28T02:56:46.371Z,5.00
2022-11-28T02:57:46.372Z,4.70
2022-11-28T02:58:46.348Z,4.40
2022-11-28T02:59:46.338Z,3.80
2022-11-28T03:00:46.431Z,4.60
2022-11-28T03:01:46.373Z,3.80
2022-11-28T03:02:46.300Z,4.30
2022-11-28T03:03:46.287Z,4.60
2022-11-28T03:04:46.311Z,5.50
2022-11-28T03:05:46.274Z,3.80
2022-11-28T03:06:46.264Z,3.90
2022-11-28T03:07:46.296Z,4.30
2022-11-28T03:08:46.246Z,4.10
2022-11-28T03:09:46.235Z,4.50
2022-11-28T03:10:46.249Z,4.50
2022-11-28T03:11:46.207Z,4.10
2022-11-28T03:12:46.202Z,4.00
2022-11-28T03:13:46.200Z,4.80
2022-11-28T03:14:46.223Z,4.00
2022-11-28T03:15:46.184Z,5.20
2022-11-28T03:16:46.189Z,4.40
2022-11-28T03:17:46.162Z,4.70
2022-11-28T03:18:46.134Z,4.40
2022-11-28T03:19:46.141Z,5.30
2022-11-28T03:20:46.123Z,4.40
2022-11-28T03:21:46.125Z,4.80
2022-11-28T03:22:46.098Z,4.50
2022-11-28T03:23:46.083Z,4.10
2022-11-28T03:24:46.104Z,4.70
2022-11-28T03:25:46.050Z,4.80
2022-11-28T03:26:46.062Z,5.20
2022-11-28T03:27:46.053Z,5.30
2022-11-28T03:28:46.036Z,4.70
2022-11-28T03:29:46.037Z,4.90
2022-11-28T03:30:46.024Z,5.00
2022-11-28T03:31:46.054Z,4.70
2022-11-28T03:32:45.987Z,4.80
2022-11-28T03:33:46.016Z,5.00
2022-11-28T03:34:45.979Z,4.10
2022-11-28T03:35:45.956Z,4.70
2022-11-28T03:36:45.964Z,4.00
2022-11-28T03:37:45.931Z,4.80
2022-11-28T03:38:45.927Z,5.40
2022-11-28T03:39:45.930Z,5.40
2022-11-28T03:40:45.919Z,4.50
2022-11-28T03:41:45.897Z,5.40
2022-11-28T03:42:45.892Z,4.90
2022-11-28T03:43:45.871Z,4.70
2022-11-28T03:44:45.878Z,4.50
2022-11-28T03:45:45.865Z,4.70
2022-11-28T03:46:45.969Z,4.60
2022-11-28T03:47:45.842Z,5.00
2022-11-28T03:48:45.829Z,5.00
2022-11-28T03:49:45.841Z,4.20
2022-11-28T03:50:45.827Z,4.60
2022-11-28T03:51:45.791Z,5.20
2022-11-28T03:52:45.780Z,4.10
2022-11-28T03:53:45.765Z,5.40
2022-11-28T03:54:45.774Z,5.30
2022-11-28T03:55:45.822Z,5.40
2022-11-28T03:56:45.786Z,4.50
2022-11-28T03:57:45.735Z,5.10
2022-11-28T03:58:45.730Z,4.80
2022-11-28T03:59:45.740Z,4.80
2022-11-28T04:00:45.761Z,4.80
2022-11-28T04:01:45.686Z,4.90
2022-11-28T04:02:45.717Z,4.80
2022-11-28T04:03:45.684Z,4.70
2022-11-28T04:04:45.705Z,5.00
2022-11-28T04:05:45.643Z,5.70
2022-11-28T04:06:45.636Z,5.00
2022-11-28T04:07:45.712Z,5.10
2022-11-28T04:08:45.629Z,4.70
2022-11-28T04:09:45.630Z,5.20
2022-11-28T04:10:45.607Z,4.70
2022-11-28T04:11:45.584Z,4.40
2022-11-28T04:12:45.591Z,5.20
2022-11-28T04:13:45.606Z,4.90
2022-11-28T04:14:45.567Z,5.20
2022-11-28T04:15:45.538Z,4.90
2022-11-28T04:16:50.593Z,5.30
2022-11-28T04:17:45.538Z,5.00
2022-11-28T04:18:45.515Z,4.80
2022-11-28T04:19:45.572Z,4.60
2022-11-28T04:20:45.500Z,4.50
2022-11-28T04:21:45.513Z,5.00
2022-11-28T04:22:45.484Z,5.00
2022-11-28T04:23:45.465Z,4.70
2022-11-28T04:24:45.551Z,4.70
2022-11-28T04:25:45.455Z,5.20
2022-11-28T04:26:45.446Z,4.80
2022-11-28T04:27:45.429Z,4.90
2022-11-28T04:28:45.428Z,4.70
2022-11-28T04:29:45.423Z,4.90
2022-11-28T04:30:45.399Z,4.60
2022-11-28T04:31:45.437Z,4.50
2022-11-28T04:32:45.380Z,4.80
2022-11-28T04:33:45.365Z,5.20
2022-11-28T04:34:45.667Z,5.00
2022-11-28T04:35:45.339Z,5.00
2022-11-28T04:36:45.354Z,5.60
2022-11-28T04:37:45.316Z,5.50
2022-11-28T04:38:45.327Z,5.00
2022-11-28T04:39:45.324Z,5.40
2022-11-28T04:40:45.305Z,4.70
2022-11-28T04:41:45.283Z,5.40
2022-11-28T04:42:48.775Z,4.80
2022-11-28T04:43:45.268Z,5.30
2022-11-28T04:44:45.517Z,4.90
2022-11-28T04:45:45.341Z,5.10
2022-11-28T04:46:45.248Z,4.30
2022-11-28T04:47:45.224Z,4.80
2022-11-28T04:48:45.235Z,5.00
2022-11-28T04:49:45.223Z,4.40
2022-11-28T04:50:45.199Z,4.20
2022-11-28T04:51:45.183Z,5.40
2022-11-28T04:52:45.179Z,4.80
2022-11-28T04:53:45.151Z,4.50
2022-11-28T04:54:45.337Z,4.80
2022-11-28T04:55:45.157Z,5.60
2022-11-28T04:56:45.138Z,5.40
2022-11-28T04:57:45.130Z,4.70
2022-11-28T04:58:45.111Z,4.50
2022-11-28T04:59:45.107Z,4.80
2022-11-28T05:00:45.165Z,5.20
2022-11-28T05:01:45.129Z,5.20
2022-11-28T05:02:45.060Z,5.10
2022-11-28T05:03:45.052Z,4.60
2022-11-28T05:04:45.288Z,5.20
2022-11-28T05:05:45.031Z,4.70
2022-11-28T05:06:45.036Z,5.20
2022-11-28T05:07:45.112Z,5.10
2022-11-28T05:08:45.020Z,5.00
2022-11-28T05:09:44.999Z,5.40
2022-11-28T05:10:44.979Z,4.90
2022-11-28T05:11:44.986Z,5.10
2022-11-28T05:12:45.011Z,4.60
2022-11-28T05:13:44.960Z,5.00
2022-11-28T05:14:45.065Z,4.40
2022-11-28T05:15:44.933Z,5.40
2022-11-28T05:16:44.973Z,5.10
2022-11-28T05:17:44.908Z,4.10
2022-11-28T05:18:45.000Z,5.00
2022-11-28T05:19:44.900Z,4.70
2022-11-28T05:20:44.874Z,4.90
2022-11-28T05:21:44.906Z,5.10
2022-11-28T05:22:44.858Z,5.30
2022-11-28T05:23:44.838Z,5.20
2022-11-28T05:24:45.086Z,4.50
2022-11-28T05:25:44.839Z,5.40
2022-11-28T05:26:44.819Z,5.30
2022-11-28T05:27:44.812Z,4.90
2022-11-28T05:28:44.797Z,5.20
2022-11-28T05:29:49.432Z,4.20
2022-11-28T05:30:44.797Z,5.00
2022-11-28T05:31:44.854Z,4.80
2022-11-28T05:32:44.779Z,4.00
2022-11-28T05:33:44.737Z,5.60
2022-11-28T05:34:44.970Z,4.50
2022-11-28T05:35:44.715Z,4.40
2022-11-28T05:36:44.719Z,4.70
2022-11-28T05:37:44.716Z,5.20
2022-11-28T05:38:44.732Z,5.00
2022-11-28T05:39:45.095Z,4.70
2022-11-28T05:40:44.713Z,5.10
2022-11-28T05:41:44.681Z,4.40
2022-11-28T05:42:44.668Z,5.00
2022-11-28T05:43:44.646Z,4.20
2022-11-28T05:44:44.687Z,5.20
2022-11-28T05:45:44.715Z,4.60
2022-11-28T05:46:44.617Z,5.30
2022-11-28T05:47:44.661Z,4.30
2022-11-28T05:48:44.611Z,5.70
2022-11-28T05:49:44.867Z,5.10
2022-11-28T05:50:44.572Z,5.10
2022-11-28T05:51:44.556Z,4.60
2022-11-28T05:52:44.558Z,4.90
2022-11-28T05:53:44.566Z,4.70
2022-11-28T05:54:44.571Z,4.90
2022-11-28T05:55:44.530Z,4.70
2022-11-28T05:56:44.515Z,4.70
2022-11-28T05:57:44.524Z,4.50
2022-11-28T05:58:44.505Z,4.80
2022-11-28T05:59:44.850Z,5.30
2022-11-28T06:00:44.482Z,5.40
2022-11-28T06:01:44.553Z,5.20
2022-11-28T06:02:44.450Z,4.90
2022-11-28T06:03:44.468Z,5.40
2022-11-28T06:04:44.535Z,4.60
2022-11-28T06:05:44.571Z,5.10
2022-11-28T06:06:44.421Z,5.10
2022-11-28T06:07:44.485Z,5.50
2022-11-28T06:08:44.577Z,6.60
2022-11-28T06:09:44.708Z,5.70
2022-11-28T06:10:44.409Z,5.50
2022-11-28T06:11:44.446Z,5.00
2022-11-28T06:12:44.302Z,5.10
2022-11-28T06:13:44.349Z,5.00
2022-11-28T06:14:44.368Z,5.10
2022-11-28T06:15:44.345Z,4.60
2022-11-28T06:16:44.463Z,5.90
2022-11-28T06:17:44.301Z,5.20
2022-11-28T06:18:44.290Z,4.90
2022-11-28T06:19:44.476Z,5.30
2022-11-28T06:20:44.227Z,5.50
2022-11-28T06:21:44.207Z,5.20
2022-11-28T06:22:44.222Z,5.50
2022-11-28T06:23:44.218Z,5.30
2022-11-28T06:24:44.176Z,5.20
2022-11-28T06:25:44.170Z,5.60
2022-11-28T06:26:44.151Z,4.80
2022-11-28T06:27:44.153Z,4.60
2022-11-28T06:28:44.124Z,5.30
2022-11-28T06:29:44.502Z,5.00
2022-11-28T06:30:44.115Z,5.20
2022-11-28T06:31:44.168Z,4.80
2022-11-28T06:32:44.112Z,5.10
2022-11-28T06:33:44.092Z,5.00
2022-11-28T06:34:44.063Z,5.50
2022-11-28T06:35:44.073Z,5.50
2022-11-28T06:36:44.054Z,5.50
2022-11-28T06:37:44.033Z,4.80
2022-11-28T06:38:44.018Z,5.20
2022-11-28T06:39:44.290Z,5.00
2022-11-28T06:40:44.033Z,4.90
2022-11-28T06:41:43.990Z,5.10
2022-11-28T06:42:43.993Z,5.20
2022-11-28T06:43:44.044Z,5.00
2022-11-28T06:44:43.973Z,5.80
2022-11-28T06:45:44.000Z,4.70
2022-11-28T06:46:43.966Z,5.60
2022-11-28T06:47:43.932Z,5.20
2022-11-28T06:48:43.923Z,5.50
2022-11-28T06:49:44.293Z,5.50
2022-11-28T06:50:44.101Z,5.80
2022-11-28T06:51:46.663Z,5.50
2022-11-28T06:52:43.887Z,5.60
2022-11-28T06:53:43.890Z,5.00
2022-11-28T06:54:43.853Z,5.70
2022-11-28T06:55:43.880Z,5.40
2022-11-28T06:56:43.872Z,5.10
2022-11-28T06:57:43.821Z,5.10
2022-11-28T06:58:43.824Z,5.80
2022-11-28T06:59:44.013Z,4.90
2022-11-28T07:00:43.826Z,5.20
2022-11-28T07:01:43.896Z,6.00
2022-11-28T07:02:43.869Z,5.20
2022-11-28T07:03:43.770Z,5.00
2022-11-28T07:04:43.773Z,5.20
2022-11-28T07:05:43.749Z,5.60
2022-11-28T07:06:43.754Z,5.70
2022-11-28T07:07:53.808Z,5.90
2022-11-28T07:08:43.720Z,5.40
2022-11-28T07:09:44.096Z,5.40
2022-11-28T07:10:43.699Z,5.50
2022-11-28T07:11:43.679Z,4.60
2022-11-28T07:12:43.744Z,5.20
2022-11-28T07:13:43.737Z,4.80
2022-11-28T07:14:43.671Z,5.50
2022-11-28T07:15:43.658Z,4.60
2022-11-28T07:16:43.720Z,4.60
2022-11-28T07:17:43.620Z,5.50
2022-11-28T07:18:43.601Z,5.40
2022-11-28T07:19:44.003Z,5.00
2022-11-28T07:20:43.610Z,5.20
2022-11-28T07:21:43.581Z,5.20
2022-11-28T07:22:43.564Z,5.70
2022-11-28T07:23:43.559Z,5.60
2022-11-28T07:24:43.542Z,5.40
2022-11-28T07:25:43.557Z,5.20
2022-11-28T07:26:43.556Z,5.20
2022-11-28T07:27:43.524Z,4.80
2022-11-28T07:28:43.508Z,5.50
2022-11-28T07:29:43.695Z,5.30
2022-11-28T07:30:43.498Z,5.30
2022-11-28T07:31:43.511Z,5.20
2022-11-28T07:32:43.492Z,5.90
2022-11-28T07:33:43.451Z,5.60
2022-11-28T07:34:46.662Z,4.90
2022-11-28T07:35:43.478Z,5.00
2022-11-28T07:36:43.418Z,4.90
2022-11-28T07:37:43.419Z,4.80
2022-11-28T07:38:43.394Z,5.00
2022-11-28T07:39:43.644Z,6.10
2022-11-28T07:40:43.378Z,5.50
2022-11-28T07:41:43.360Z,4.90
2022-11-28T07:42:43.355Z,5.50
2022-11-28T07:43:43.348Z,5.60
2022-11-28T07:44:43.333Z,4.90
2022-11-28T07:46:00.135Z,5.10
2022-11-28T07:46:43.438Z,4.50
2022-11-28T07:47:43.295Z,5.40
2022-11-28T07:48:43.286Z,5.60
2022-11-28T07:49:43.678Z,5.60
2022-11-28T07:50:43.301Z,5.30
2022-11-28T07:51:43.280Z,5.20
2022-11-28T07:52:43.251Z,5.50
2022-11-28T07:53:43.238Z,4.80
2022-11-28T07:54:43.225Z,5.80
2022-11-28T07:55:43.232Z,5.10
2022-11-28T07:57:13.547Z,4.80
2022-11-28T07:57:43.206Z,5.90
2022-11-28T07:58:43.187Z,6.00
2022-11-28T07:59:43.449Z,6.60
2022-11-28T08:00:43.178Z,4.70
2022-11-28T08:01:43.205Z,5.50
2022-11-28T08:02:43.150Z,6.30
2022-11-28T08:03:43.131Z,5.30
2022-11-28T08:04:49.387Z,5.50
2022-11-28T08:05:43.137Z,5.20
2022-11-28T08:06:43.141Z,5.10
2022-11-28T08:07:49.208Z,4.90
2022-11-28T08:08:44.952Z,5.20
2022-11-28T08:09:43.333Z,4.90
2022-11-28T08:10:43.068Z,4.70
2022-11-28T08:11:43.055Z,4.80
2022-11-28T08:12:43.037Z,5.50
2022-11-28T08:13:43.023Z,5.50
2022-11-28T08:14:43.122Z,5.10
2022-11-28T08:15:43.010Z,5.20
2022-11-28T08:16:43.052Z,5.60
2022-11-28T08:17:42.982Z,5.00
2022-11-28T08:18:42.973Z,5.30
2022-11-28T08:19:42.974Z,5.50
2022-11-28T08:20:42.975Z,6.10
2022-11-28T08:21:42.970Z,5.50
2022-11-28T08:22:42.941Z,5.30
2022-11-28T08:23:42.924Z,5.00
2022-11-28T08:24:43.142Z,5.30
2022-11-28T08:25:42.908Z,5.80
2022-11-28T08:26:42.925Z,5.30
2022-11-28T08:27:42.904Z,4.90
2022-11-28T08:28:42.870Z,5.30
2022-11-28T08:29:43.146Z,4.80
2022-11-28T08:30:42.897Z,5.30
2022-11-28T08:31:42.857Z,5.70
2022-11-28T08:32:42.842Z,5.50
2022-11-28T08:33:42.836Z,6.20
2022-11-28T08:34:42.807Z,6.70
2022-11-28T08:35:42.802Z,6.40
2022-11-28T08:36:42.801Z,6.90
2022-11-28T08:37:42.791Z,6.00
2022-11-28T08:38:46.997Z,5.10
2022-11-28T08:39:42.968Z,5.20
2022-11-28T08:40:42.742Z,5.60
2022-11-28T08:41:42.773Z,5.40
2022-11-28T08:42:42.714Z,6.40
2022-11-28T08:43:42.723Z,5.70
2022-11-28T08:44:42.706Z,5.80
2022-11-28T08:45:42.722Z,5.60
2022-11-28T08:46:42.696Z,5.10
2022-11-28T08:47:42.672Z,6.20
2022-11-28T08:48:42.653Z,5.80
2022-11-28T08:49:42.916Z,5.60
2022-11-28T08:50:46.765Z,5.90
2022-11-28T08:51:42.649Z,5.70
2022-11-28T08:52:42.615Z,5.20
2022-11-28T08:53:46.083Z,6.00
2022-11-28T08:54:42.964Z,5.70
2022-11-28T08:55:42.589Z,4.80
2022-11-28T08:56:42.605Z,5.60
2022-11-28T08:57:42.570Z,6.10
2022-11-28T08:58:42.561Z,6.10
2022-11-28T08:59:42.952Z,5.60
2022-11-28T09:00:42.560Z,5.50
2022-11-28T09:01:42.611Z,5.50
2022-11-28T09:02:42.509Z,5.50
2022-11-28T09:03:42.588Z,5.30
2022-11-28T09:04:42.493Z,5.00
2022-11-28T09:05:42.485Z,5.60
2022-11-28T09:06:42.491Z,6.50
2022-11-28T09:07:42.511Z,5.50
2022-11-28T09:08:42.452Z,5.00
2022-11-28T09:09:42.440Z,5.10
2022-11-28T09:10:42.426Z,5.90
2022-11-28T09:11:42.433Z,5.50
2022-11-28T09:12:42.415Z,5.40
2022-11-28T09:13:42.407Z,5.80
2022-11-28T09:14:42.387Z,6.30
2022-11-28T09:15:42.406Z,5.10
2022-11-28T09:16:42.457Z,5.80
2022-11-28T09:17:42.363Z,5.20
2022-11-28T09:18:42.358Z,5.00
2022-11-28T09:19:42.490Z,5.30
2022-11-28T09:20:42.340Z,5.30
2022-11-28T09:21:42.365Z,6.00
2022-11-28T09:22:42.311Z,5.30
2022-11-28T09:23:42.307Z,5.00
2022-11-28T09:24:42.288Z,4.60
2022-11-28T09:25:42.285Z,6.00
2022-11-28T09:26:42.287Z,5.10
2022-11-28T09:27:42.271Z,5.60
2022-11-28T09:28:42.267Z,4.80
2022-11-28T09:29:42.549Z,5.30
2022-11-28T09:30:42.268Z,6.10
2022-11-28T09:31:47.123Z,5.30
2022-11-28T09:32:42.212Z,5.20
2022-11-28T09:33:42.216Z,4.70
2022-11-28T09:34:42.189Z,5.20
2022-11-28T09:35:42.185Z,4.80
2022-11-28T09:36:42.195Z,5.50
2022-11-28T09:37:42.156Z,5.50
2022-11-28T09:38:42.139Z,5.00
2022-11-28T09:39:57.370Z,5.70
2022-11-28T09:40:42.139Z,5.20
2022-11-28T09:41:42.146Z,5.20
2022-11-28T09:42:42.100Z,5.70
2022-11-28T09:43:42.097Z,4.90
2022-11-28T09:44:42.092Z,5.80
2022-11-28T09:45:42.115Z,5.80
2022-11-28T09:46:42.078Z,5.30
2022-11-28T09:47:42.058Z,5.50
2022-11-28T09:48:42.058Z,5.10
2022-11-28T09:49:42.215Z,5.60
2022-11-28T09:50:42.023Z,5.90
2022-11-28T09:51:42.025Z,5.30
2022-11-28T09:52:42.032Z,5.30
2022-11-28T09:53:41.990Z,5.70
2022-11-28T09:54:41.981Z,5.70
2022-11-28T09:55:41.976Z,5.30
2022-11-28T09:56:41.976Z,6.10
2022-11-28T09:57:41.989Z,6.20
2022-11-28T09:58:41.933Z,6.40
2022-11-28T09:59:42.376Z,6.30
2022-11-28T10:00:41.925Z,6.00
2022-11-28T10:01:41.925Z,5.80
2022-11-28T10:02:41.895Z,5.70
2022-11-28T10:03:41.933Z,5.60
2022-11-28T10:04:41.954Z,5.40
2022-11-28T10:05:41.870Z,5.00
2022-11-28T10:06:41.883Z,6.20
2022-11-28T10:07:41.950Z,5.90
2022-11-28T10:08:41.838Z,5.50
2022-11-28T10:09:42.249Z,6.00
2022-11-28T10:10:41.820Z,5.40
2022-11-28T10:11:41.832Z,5.70
2022-11-28T10:12:41.800Z,5.80
2022-11-28T10:14:06.730Z,5.20
2022-11-28T10:14:41.794Z,6.10
2022-11-28T10:15:41.773Z,5.80
2022-11-28T10:16:41.881Z,6.50
2022-11-28T10:17:41.747Z,5.20
2022-11-28T10:18:41.747Z,5.60
2022-11-28T10:19:57.098Z,6.40
2022-11-28T10:20:41.752Z,6.30
2022-11-28T10:21:41.720Z,5.40
2022-11-28T10:22:41.779Z,5.50
2022-11-28T10:23:41.681Z,6.60
2022-11-28T10:24:41.682Z,5.90
2022-11-28T10:25:41.673Z,6.10
2022-11-28T10:26:41.669Z,5.40
2022-11-28T10:27:41.647Z,5.60
2022-11-28T10:28:41.645Z,5.50
2022-11-28T10:29:41.919Z,6.40
2022-11-28T10:30:41.662Z,6.30
2022-11-28T10:31:41.614Z,5.80
2022-11-28T10:32:41.631Z,5.70
2022-11-28T10:33:41.588Z,5.80
2022-11-28T10:34:41.591Z,5.90
2022-11-28T10:35:41.603Z,5.30
2022-11-28T10:36:41.569Z,5.80
2022-11-28T10:37:41.540Z,6.70
2022-11-28T10:38:41.533Z,6.20
2022-11-28T10:39:41.895Z,5.90
2022-11-28T10:40:41.519Z,6.40
2022-11-28T10:41:41.512Z,5.70
2022-11-28T10:42:41.494Z,6.40
2022-11-28T10:43:41.484Z,6.60
2022-11-28T10:44:41.479Z,6.50
2022-11-28T10:45:41.473Z,5.70
2022-11-28T10:46:41.539Z,5.80
2022-11-28T10:47:41.464Z,5.50
2022-11-28T10:48:41.699Z,6.10
2022-11-28T10:49:41.767Z,5.50
2022-11-28T10:50:41.407Z,6.10
2022-11-28T10:51:41.406Z,6.20
2022-11-28T10:52:41.400Z,5.70
2022-11-28T10:53:41.383Z,6.90
2022-11-28T10:54:41.366Z,5.50
2022-11-28T10:55:41.363Z,5.50
2022-11-28T10:56:41.361Z,5.60
2022-11-28T10:57:41.338Z,5.50
2022-11-28T10:58:41.328Z,5.90
2022-11-28T10:59:41.617Z,5.90
2022-11-28T11:00:41.335Z,6.00
2022-11-28T11:01:43.783Z,6.10
2022-11-28T11:02:41.294Z,5.80
2022-11-28T11:03:41.294Z,6.20
2022-11-28T11:04:41.416Z,5.80
2022-11-28T11:05:41.253Z,5.40
2022-11-28T11:06:53.795Z,5.30
2022-11-28T11:07:41.299Z,5.80
2022-11-28T11:08:41.238Z,5.70
2022-11-28T11:09:41.796Z,5.20
2022-11-28T11:10:41.218Z,5.60
2022-11-28T11:11:41.207Z,6.20
2022-11-28T11:12:41.200Z,5.50
2022-11-28T11:13:41.170Z,5.60
2022-11-28T11:14:41.180Z,5.50
2022-11-28T11:15:41.250Z,5.30
2022-11-28T11:16:41.176Z,5.30
2022-11-28T11:17:41.124Z,5.50
2022-11-28T11:18:41.124Z,5.60
2022-11-28T11:19:41.675Z,6.50
2022-11-28T11:20:41.111Z,5.70
2022-11-28T11:21:41.092Z,6.00
2022-11-28T11:22:41.112Z,5.60
2022-11-28T11:23:41.077Z,5.80
2022-11-28T11:24:41.087Z,4.90
2022-11-28T11:25:41.042Z,6.00
2022-11-28T11:26:41.093Z,6.00
2022-11-28T11:27:41.045Z,5.70
2022-11-28T11:28:41.025Z,5.30
2022-11-28T11:29:41.582Z,5.00
2022-11-28T11:30:41.016Z,5.10
2022-11-28T11:31:40.981Z,5.10
2022-11-28T11:32:40.991Z,5.50
2022-11-28T11:33:40.957Z,5.30
2022-11-28T11:34:40.965Z,5.70
2022-11-28T11:35:40.954Z,5.70
2022-11-28T11:36:41.002Z,5.80
2022-11-28T11:37:40.933Z,5.80
2022-11-28T11:38:40.922Z,5.20
2022-11-28T11:39:41.159Z,5.50
2022-11-28T11:40:40.901Z,5.20
2022-11-28T11:41:40.912Z,6.00
2022-11-28T11:42:40.896Z,5.70
2022-11-28T11:43:40.858Z,5.80
2022-11-28T11:44:40.849Z,5.50
2022-11-28T11:45:40.833Z,5.20
2022-11-28T11:46:40.990Z,4.70
2022-11-28T11:47:40.846Z,5.00
2022-11-28T11:48:40.837Z,5.80
2022-11-28T11:49:41.135Z,4.90
2022-11-28T11:50:40.789Z,5.30
2022-11-28T11:51:40.773Z,5.20
2022-11-28T11:52:40.793Z,4.90
2022-11-28T11:53:40.752Z,5.80
2022-11-28T11:54:40.749Z,5.20
2022-11-28T11:55:40.728Z,5.40
2022-11-28T11:56:40.793Z,4.70
2022-11-28T11:57:40.760Z,5.30
2022-11-28T11:58:40.703Z,4.50
2022-11-28T11:59:40.997Z,5.40
2022-11-28T12:00:40.687Z,5.00
2022-11-28T12:01:40.666Z,4.90
2022-11-28T12:02:40.859Z,5.20
2022-11-28T12:03:40.778Z,4.90
2022-11-28T12:04:46.459Z,5.10
2022-11-28T12:06:06.217Z,5.40
2022-11-28T12:06:40.645Z,5.10
2022-11-28T12:07:40.783Z,5.20
2022-11-28T12:08:40.611Z,4.10
2022-11-28T12:09:40.605Z,4.70
2022-11-28T12:10:40.597Z,4.90
2022-11-28T12:11:46.567Z,4.90
2022-11-28T12:12:40.572Z,5.20
2022-11-28T12:13:40.548Z,5.40
2022-11-28T12:14:40.546Z,5.30
2022-11-28T12:15:40.602Z,6.70
2022-11-28T12:16:40.595Z,5.60
2022-11-28T12:29:23.113Z,4.60
2022-11-28T12:29:28.056Z,5.10
2022-11-28T12:30:28.044Z,4.70
2022-11-28T12:31:28.073Z,4.60
2022-11-28T12:32:28.076Z,5.00
2022-11-28T12:33:28.006Z,6.00
2022-11-28T12:34:28.005Z,5.20
2022-11-28T12:35:27.988Z,6.00
2022-11-28T12:36:27.991Z,4.70
2022-11-28T12:37:42.081Z,5.00
2022-11-28T12:38:27.968Z,5.60
2022-11-28T12:39:27.939Z,5.40
2022-11-28T12:40:27.946Z,5.00
2022-11-28T12:41:32.411Z,5.50
2022-11-28T12:42:27.946Z,4.60
2022-11-28T12:43:27.905Z,4.30
2022-11-28T12:44:27.900Z,4.70
2022-11-28T12:45:27.882Z,5.40
2022-11-28T12:46:28.257Z,4.70
2022-11-28T12:47:27.901Z,5.20
2022-11-28T12:48:27.853Z,4.60
2022-11-28T12:49:27.880Z,5.10
2022-11-28T12:50:27.839Z,5.40
2022-11-28T12:51:27.817Z,5.10
2022-11-28T12:52:27.829Z,4.80
2022-11-28T12:53:27.819Z,5.20
2022-11-28T12:54:27.802Z,5.00
2022-11-28T12:55:27.815Z,6.20
2022-11-28T12:56:27.798Z,6.10
2022-11-28T12:57:27.807Z,6.40
2022-11-28T12:58:27.751Z,6.50
2022-11-28T12:59:27.746Z,6.80
2022-11-28T13:00:27.734Z,7.10
2022-11-28T13:01:27.805Z,5.90
2022-11-28T13:02:28.023Z,6.60
2022-11-28T13:03:27.746Z,6.20
2022-11-28T13:04:27.714Z,7.10
2022-11-28T13:05:27.683Z,6.30
2022-11-28T13:06:27.698Z,7.20
2022-11-28T13:07:27.722Z,6.20
2022-11-28T13:08:27.665Z,6.80
2022-11-28T13:09:27.641Z,6.60
2022-11-28T13:10:27.635Z,6.80
2022-11-28T13:11:27.631Z,6.30
2022-11-28T13:12:27.622Z,6.20
2022-11-28T13:13:27.593Z,7.00
2022-11-28T13:14:27.593Z,6.40
2022-11-28T13:15:27.584Z,6.90
2022-11-28T13:16:27.808Z,7.80
2022-11-28T13:17:27.562Z,6.30
2022-11-28T13:18:27.553Z,6.20
2022-11-28T13:19:27.536Z,5.80
2022-11-28T13:20:27.531Z,6.60
2022-11-28T13:21:27.518Z,5.50
2022-11-28T13:22:27.526Z,5.80
2022-11-28T13:23:27.552Z,5.90
2022-11-28T13:24:27.491Z,6.10
2022-11-28T13:25:27.476Z,7.10
2022-11-28T13:26:27.474Z,5.70
2022-11-28T13:27:27.480Z,6.00
2022-11-28T13:28:27.454Z,6.10
2022-11-28T13:29:27.434Z,6.50